Private Wetterstation Sandau
Wetterdaten: Montag, 05.03.2012
Datum Zeit Temp. A. Feuchte A. Luftdruck Regen Wind Richtung Richtung Taupunkt Windchill
05.03.2012 00:02 3,1 C 59 % 1021,2 hPa 0,0 l/m 10,1 km/h (2 Bft) O-NO 67 -4,1 C 0,4 C
05.03.2012 00:07 2,9 C 60 % 1021,1 hPa 0,0 l/m 9,7 km/h (2 Bft) O 90 -4,1 C 0,2 C
05.03.2012 00:12 2,9 C 60 % 1021,2 hPa 0,0 l/m 4,0 km/h (1 Bft) SO 135 -4,1 C 2,9 C
05.03.2012 00:17 2,8 C 60 % 1021,2 hPa 0,0 l/m 17,6 km/h (3 Bft) O-SO 112 -4,2 C -1,4 C
05.03.2012 00:22 2,6 C 61 % 1021,4 hPa 0,0 l/m 13,3 km/h (3 Bft) O-SO 112 -4,1 C -0,9 C
05.03.2012 00:27 2,6 C 62 % 1021,3 hPa 0,0 l/m 6,8 km/h (2 Bft) O 90 -3,9 C 0,7 C
05.03.2012 00:32 2,5 C 62 % 1021,3 hPa 0,0 l/m 12,2 km/h (2 Bft) O-SO 112 -4,0 C -0,8 C
05.03.2012 00:37 2,4 C 63 % 1021,3 hPa 0,0 l/m 4,7 km/h (1 Bft) SO 135 -3,9 C 1,3 C
05.03.2012 00:42 2,4 C 64 % 1021,3 hPa 0,0 l/m 9,4 km/h (2 Bft) O 90 -3,7 C -0,3 C
05.03.2012 00:47 2,3 C 64 % 1021,3 hPa 0,0 l/m 6,5 km/h (2 Bft) O-NO 67 -3,8 C 0,4 C
05.03.2012 00:52 2,3 C 64 % 1021,3 hPa 0,0 l/m 7,2 km/h (2 Bft) O-NO 67 -3,8 C 0,2 C
05.03.2012 00:57 2,2 C 65 % 1021,1 hPa 0,0 l/m 9,0 km/h (2 Bft) O 90 -3,7 C -0,4 C
05.03.2012 01:02 2,1 C 66 % 1021,1 hPa 0,0 l/m 6,8 km/h (2 Bft) O-SO 112 -3,6 C 0,1 C
05.03.2012 01:07 2,1 C 67 % 1021,1 hPa 0,0 l/m 10,1 km/h (2 Bft) O 90 -3,4 C -0,8 C
05.03.2012 01:12 2,1 C 67 % 1021,0 hPa 0,0 l/m 11,5 km/h (2 Bft) O 90 -3,4 C -1,2 C
05.03.2012 01:17 2,1 C 67 % 1021,1 hPa 0,0 l/m 17,3 km/h (3 Bft) O-SO 112 -3,4 C -2,2 C
05.03.2012 01:22 2,0 C 67 % 1021,1 hPa 0,0 l/m 4,7 km/h (1 Bft) O-SO 112 -3,5 C 0,8 C
05.03.2012 01:27 2,0 C 68 % 1020,9 hPa 0,0 l/m 8,3 km/h (2 Bft) O 90 -3,3 C -0,5 C
05.03.2012 01:32 1,9 C 68 % 1021,0 hPa 0,0 l/m 7,2 km/h (2 Bft) O-NO 67 -3,4 C -0,3 C
05.03.2012 01:37 1,9 C 69 % 1021,0 hPa 0,0 l/m 10,4 km/h (2 Bft) O-SO 112 -3,2 C -1,1 C
05.03.2012 01:42 1,9 C 69 % 1021,2 hPa 0,0 l/m 13,3 km/h (3 Bft) O-SO 112 -3,2 C -1,8 C
05.03.2012 01:47 1,9 C 69 % 1021,1 hPa 0,0 l/m 8,6 km/h (2 Bft) S-SO 157 -3,2 C -0,7 C
05.03.2012 01:52 1,9 C 69 % 1021,1 hPa 0,0 l/m 10,4 km/h (2 Bft) O 90 -3,2 C -1,1 C
05.03.2012 01:57 1,8 C 70 % 1021,1 hPa 0,0 l/m 12,2 km/h (2 Bft) SO 135 -3,1 C -1,7 C
05.03.2012 02:02 1,8 C 70 % 1020,9 hPa 0,0 l/m 9,0 km/h (2 Bft) O-SO 112 -3,1 C -0,9 C
05.03.2012 02:07 1,8 C 70 % 1020,7 hPa 0,0 l/m 7,9 km/h (2 Bft) O-SO 112 -3,1 C -0,6 C
05.03.2012 02:12 1,6 C 70 % 1020,7 hPa 0,0 l/m 14,4 km/h (3 Bft) O 90 -3,3 C -2,3 C
05.03.2012 02:17 1,6 C 70 % 1020,7 hPa 0,0 l/m 20,9 km/h (4 Bft) SO 135 -3,3 C -3,3 C
05.03.2012 02:22 1,6 C 70 % 1020,8 hPa 0,0 l/m 4,3 km/h (1 Bft) SO 135 -3,3 C 1,6 C
05.03.2012 02:27 1,6 C 71 % 1020,6 hPa 0,0 l/m 14,8 km/h (3 Bft) S-SO 157 -3,1 C -2,4 C
05.03.2012 02:32 1,5 C 71 % 1020,8 hPa 0,0 l/m 7,2 km/h (2 Bft) SO 135 -3,2 C -0,7 C
05.03.2012 02:37 1,5 C 71 % 1020,7 hPa 0,0 l/m 8,6 km/h (2 Bft) O-SO 112 -3,2 C -1,2 C
05.03.2012 02:42 1,5 C 71 % 1020,7 hPa 0,0 l/m 13,3 km/h (3 Bft) O 90 -3,2 C -2,2 C
05.03.2012 02:47 1,5 C 71 % 1020,6 hPa 0,0 l/m 17,3 km/h (3 Bft) O-SO 112 -3,2 C -3,0 C
05.03.2012 02:52 1,5 C 71 % 1020,5 hPa 0,0 l/m 21,6 km/h (4 Bft) SO 135 -3,2 C -3,6 C
05.03.2012 02:57 1,5 C 71 % 1020,6 hPa 0,0 l/m 25,6 km/h (4 Bft) O-SO 112 -3,2 C -4,1 C
05.03.2012 03:02 1,5 C 71 % 1020,7 hPa 0,0 l/m 21,2 km/h (4 Bft) SO 135 -3,2 C -3,5 C
05.03.2012 03:07 1,5 C 71 % 1020,6 hPa 0,0 l/m 4,0 km/h (1 Bft) S-SO 157 -3,2 C 1,5 C
05.03.2012 03:12 1,5 C 71 % 1020,6 hPa 0,0 l/m 16,9 km/h (3 Bft) SO 135 -3,2 C -2,9 C
05.03.2012 03:17 1,5 C 71 % 1020,5 hPa 0,0 l/m 13,0 km/h (3 Bft) O-SO 112 -3,2 C -2,2 C
05.03.2012 03:22 1,5 C 71 % 1020,4 hPa 0,0 l/m 14,4 km/h (3 Bft) O-SO 112 -3,2 C -2,5 C
05.03.2012 03:27 1,5 C 70 % 1020,5 hPa 0,0 l/m 18,0 km/h (3 Bft) O 90 -3,4 C -3,1 C
05.03.2012 03:32 1,5 C 70 % 1020,4 hPa 0,0 l/m 7,6 km/h (2 Bft) SO 135 -3,4 C -0,9 C
05.03.2012 03:37 1,5 C 70 % 1020,3 hPa 0,0 l/m 18,7 km/h (3 Bft) SO 135 -3,4 C -3,2 C
05.03.2012 03:42 1,5 C 70 % 1020,3 hPa 0,0 l/m 7,2 km/h (2 Bft) O-SO 112 -3,4 C -0,7 C
05.03.2012 03:47 1,5 C 70 % 1020,3 hPa 0,0 l/m 9,7 km/h (2 Bft) SO 135 -3,4 C -1,4 C
05.03.2012 03:52 1,5 C 70 % 1020,4 hPa 0,0 l/m 7,9 km/h (2 Bft) SO 135 -3,4 C -0,9 C
05.03.2012 03:57 1,5 C 70 % 1020,3 hPa 0,0 l/m 8,6 km/h (2 Bft) O 90 -3,4 C -1,2 C
05.03.2012 04:02 1,5 C 70 % 1020,3 hPa 0,0 l/m 16,6 km/h (3 Bft) O-NO 67 -3,4 C -2,8 C
05.03.2012 04:07 1,4 C 70 % 1020,3 hPa 0,0 l/m 9,4 km/h (2 Bft) O 90 -3,5 C -1,5 C
05.03.2012 04:12 1,4 C 70 % 1020,2 hPa 0,0 l/m 11,9 km/h (2 Bft) O 90 -3,5 C -2,1 C
05.03.2012 04:17 1,4 C 70 % 1020,1 hPa 0,0 l/m 9,7 km/h (2 Bft) SO 135 -3,5 C -1,6 C
05.03.2012 04:22 1,4 C 70 % 1020,3 hPa 0,0 l/m 11,2 km/h (2 Bft) S-SO 157 -3,5 C -1,9 C
05.03.2012 04:27 1,4 C 70 % 1020,2 hPa 0,0 l/m 19,1 km/h (3 Bft) O-SO 112 -3,5 C -3,3 C
05.03.2012 04:32 1,4 C 69 % 1020,2 hPa 0,0 l/m 9,7 km/h (2 Bft) SO 135 -3,7 C -1,6 C
05.03.2012 04:37 1,4 C 69 % 1020,1 hPa 0,0 l/m 13,7 km/h (3 Bft) S 180 -3,7 C -2,4 C
05.03.2012 04:42 1,4 C 69 % 1020,2 hPa 0,0 l/m 12,6 km/h (3 Bft) O-SO 112 -3,7 C -2,2 C
05.03.2012 04:47 1,4 C 67 % 1020,2 hPa 0,0 l/m 19,4 km/h (3 Bft) S-SO 157 -4,0 C -3,4 C
05.03.2012 04:52 1,4 C 67 % 1020,0 hPa 0,0 l/m 8,6 km/h (2 Bft) O-NO 67 -4,0 C -1,3 C
05.03.2012 04:57 1,5 C 66 % 1020,0 hPa 0,0 l/m 9,7 km/h (2 Bft) O-SO 112 -4,1 C -1,4 C
05.03.2012 05:02 1,4 C 66 % 1020,0 hPa 0,0 l/m 8,3 km/h (2 Bft) O-SO 112 -4,2 C -1,2 C
05.03.2012 05:07 1,4 C 66 % 1019,8 hPa 0,0 l/m 10,1 km/h (2 Bft) O-SO 112 -4,2 C -1,7 C
05.03.2012 05:12 1,4 C 66 % 1019,8 hPa 0,0 l/m 14,4 km/h (3 Bft) O-NO 67 -4,2 C -2,6 C
05.03.2012 05:17 1,3 C 66 % 1019,9 hPa 0,0 l/m 14,4 km/h (3 Bft) O 90 -4,3 C -2,7 C
05.03.2012 05:22 1,3 C 66 % 1019,9 hPa 0,0 l/m 5,8 km/h (2 Bft) O 90 -4,3 C -0,5 C
05.03.2012 05:27 1,3 C 66 % 1019,7 hPa 0,0 l/m 13,0 km/h (3 Bft) SO 135 -4,3 C -2,4 C
05.03.2012 05:32 1,3 C 66 % 1019,9 hPa 0,0 l/m 18,0 km/h (3 Bft) SO 135 -4,3 C -3,3 C
05.03.2012 05:37 1,3 C 65 % 1019,9 hPa 0,0 l/m 13,3 km/h (3 Bft) O 90 -4,5 C -2,5 C
05.03.2012 05:42 1,3 C 64 % 1019,8 hPa 0,0 l/m 9,0 km/h (2 Bft) SO 135 -4,7 C -1,5 C
05.03.2012 05:47 1,3 C 64 % 1020,0 hPa 0,0 l/m 13,7 km/h (3 Bft) O-SO 112 -4,7 C -2,6 C
05.03.2012 05:52 1,3 C 64 % 1020,0 hPa 0,0 l/m 14,8 km/h (3 Bft) O-NO 67 -4,7 C -2,8 C
05.03.2012 05:57 1,3 C 63 % 1019,8 hPa 0,0 l/m 5,4 km/h (1 Bft) SO 135 -5,0 C -0,3 C
05.03.2012 06:02 1,3 C 63 % 1020,1 hPa 0,0 l/m 17,3 km/h (3 Bft) O-SO 112 -5,0 C -3,2 C
05.03.2012 06:07 1,3 C 63 % 1019,9 hPa 0,0 l/m 7,9 km/h (2 Bft) S 180 -5,0 C -1,2 C
05.03.2012 06:12 1,3 C 63 % 1020,0 hPa 0,0 l/m 11,2 km/h (2 Bft) O-SO 112 -5,0 C -2,0 C
05.03.2012 06:17 1,3 C 63 % 1020,0 hPa 0,0 l/m 17,3 km/h (3 Bft) O 90 -5,0 C -3,2 C
05.03.2012 06:22 1,3 C 63 % 1019,8 hPa 0,0 l/m 8,6 km/h (2 Bft) O 90 -5,0 C -1,4 C
05.03.2012 06:27 1,3 C 63 % 1020,0 hPa 0,0 l/m 18,0 km/h (3 Bft) SO 135 -5,0 C -3,3 C
05.03.2012 06:32 1,3 C 62 % 1020,1 hPa 0,0 l/m 13,7 km/h (3 Bft) O 90 -5,2 C -2,6 C
05.03.2012 06:37 1,3 C 63 % 1020,3 hPa 0,0 l/m 5,8 km/h (2 Bft) SO 135 -5,0 C -0,5 C
05.03.2012 06:42 1,3 C 63 % 1020,2 hPa 0,0 l/m 7,9 km/h (2 Bft) O-SO 112 -5,0 C -1,2 C
05.03.2012 06:47 1,3 C 62 % 1020,3 hPa 0,0 l/m 14,0 km/h (3 Bft) SO 135 -5,2 C -2,6 C
05.03.2012 06:52 1,3 C 62 % 1020,4 hPa 0,0 l/m 4,3 km/h (1 Bft) O 90 -5,2 C 1,3 C
05.03.2012 06:57 1,3 C 63 % 1020,5 hPa 0,0 l/m 17,3 km/h (3 Bft) O 90 -5,0 C -3,2 C
05.03.2012 07:02 1,3 C 62 % 1020,5 hPa 0,0 l/m 8,6 km/h (2 Bft) O-SO 112 -5,2 C -1,4 C
05.03.2012 07:07 1,3 C 63 % 1020,5 hPa 0,0 l/m 7,6 km/h (2 Bft) SO 135 -5,0 C -1,1 C
05.03.2012 07:12 1,3 C 63 % 1020,5 hPa 0,0 l/m 11,2 km/h (2 Bft) O-NO 67 -5,0 C -2,0 C
05.03.2012 07:17 1,3 C 62 % 1020,6 hPa 0,0 l/m 8,3 km/h (2 Bft) O 90 -5,2 C -1,3 C
05.03.2012 07:22 1,3 C 63 % 1020,6 hPa 0,0 l/m 8,6 km/h (2 Bft) O-SO 112 -5,0 C -1,4 C
05.03.2012 07:27 1,3 C 63 % 1020,7 hPa 0,0 l/m 11,2 km/h (2 Bft) O-SO 112 -5,0 C -2,0 C
05.03.2012 07:32 1,3 C 63 % 1020,7 hPa 0,0 l/m 4,7 km/h (1 Bft) O 90 -5,0 C 0,0 C
05.03.2012 07:37 1,3 C 63 % 1020,8 hPa 0,0 l/m 5,8 km/h (2 Bft) O 90 -5,0 C -0,5 C
05.03.2012 07:42 1,3 C 63 % 1020,7 hPa 0,0 l/m 6,1 km/h (2 Bft) O-NO 67 -5,0 C -0,6 C
05.03.2012 07:47 1,3 C 63 % 1020,8 hPa 0,0 l/m 5,4 km/h (1 Bft) O 90 -5,0 C -0,3 C
05.03.2012 07:52 1,3 C 63 % 1020,9 hPa 0,0 l/m 8,6 km/h (2 Bft) S-SO 157 -5,0 C -1,4 C
05.03.2012 07:57 1,3 C 63 % 1020,9 hPa 0,0 l/m 13,0 km/h (3 Bft) O-SO 112 -5,0 C -2,4 C
05.03.2012 08:02 1,3 C 63 % 1021,0 hPa 0,0 l/m 7,2 km/h (2 Bft) O-SO 112 -5,0 C -1,0 C
05.03.2012 08:07 1,3 C 63 % 1020,8 hPa 0,0 l/m 12,6 km/h (3 Bft) O-SO 112 -5,0 C -2,4 C
05.03.2012 08:12 1,3 C 63 % 1021,0 hPa 0,0 l/m 6,5 km/h (2 Bft) O-SO 112 -5,0 C -0,7 C
05.03.2012 08:17 1,3 C 63 % 1021,0 hPa 0,0 l/m 13,7 km/h (3 Bft) O-SO 112 -5,0 C -2,6 C
05.03.2012 08:22 1,3 C 63 % 1020,9 hPa 0,0 l/m 12,2 km/h (2 Bft) O 90 -5,0 C -2,3 C
05.03.2012 08:27 1,3 C 63 % 1021,0 hPa 0,0 l/m 5,8 km/h (2 Bft) O-SO 112 -5,0 C -0,5 C
05.03.2012 08:32 1,4 C 64 % 1021,1 hPa 0,0 l/m 11,2 km/h (2 Bft) SO 135 -4,6 C -1,9 C
05.03.2012 08:37 1,4 C 64 % 1021,0 hPa 0,0 l/m 8,3 km/h (2 Bft) O 90 -4,6 C -1,2 C
05.03.2012 08:42 1,5 C 63 % 1021,0 hPa 0,0 l/m 11,2 km/h (2 Bft) SO 135 -4,8 C -1,8 C
05.03.2012 08:47 1,6 C 64 % 1021,1 hPa 0,0 l/m 5,4 km/h (1 Bft) SO 135 -4,5 C 0,1 C
05.03.2012 08:52 1,6 C 64 % 1021,2 hPa 0,0 l/m 19,1 km/h (3 Bft) O-SO 112 -4,5 C -3,1 C
05.03.2012 08:57 1,8 C 64 % 1021,0 hPa 0,0 l/m 13,0 km/h (3 Bft) O 90 -4,3 C -1,8 C
05.03.2012 09:02 1,8 C 64 % 1021,1 hPa 0,0 l/m 17,6 km/h (3 Bft) O-SO 112 -4,3 C -2,6 C
05.03.2012 09:07 1,9 C 64 % 1021,1 hPa 0,0 l/m 8,6 km/h (2 Bft) SO 135 -4,2 C -0,7 C
05.03.2012 09:12 1,9 C 64 % 1020,9 hPa 0,0 l/m 13,3 km/h (3 Bft) O-NO 67 -4,2 C -1,8 C
05.03.2012 09:17 2,0 C 64 % 1021,1 hPa 0,0 l/m 7,6 km/h (2 Bft) SO 135 -4,1 C -0,3 C
05.03.2012 09:22 2,1 C 64 % 1021,1 hPa 0,0 l/m 8,3 km/h (2 Bft) O-SO 112 -4,0 C -0,4 C
05.03.2012 09:27 2,3 C 63 % 1021,2 hPa 0,0 l/m 5,0 km/h (1 Bft) SO 135 -4,0 C 1,0 C
05.03.2012 09:32 2,4 C 63 % 1021,3 hPa 0,0 l/m 16,2 km/h (3 Bft) O 90 -3,9 C -1,7 C
05.03.2012 09:37 2,4 C 63 % 1021,2 hPa 0,0 l/m 9,4 km/h (2 Bft) O-SO 112 -3,9 C -0,3 C
05.03.2012 09:42 2,6 C 63 % 1021,2 hPa 0,0 l/m 5,0 km/h (1 Bft) S-SO 157 -3,7 C 1,4 C
05.03.2012 09:47 2,8 C 63 % 1021,2 hPa 0,0 l/m 6,8 km/h (2 Bft) SO 135 -3,5 C 0,9 C
05.03.2012 09:52 2,9 C 62 % 1021,3 hPa 0,0 l/m 16,6 km/h (3 Bft) SO 135 -3,6 C -1,1 C
05.03.2012 09:57 3,1 C 61 % 1021,3 hPa 0,0 l/m 3,6 km/h (1 Bft) O-SO 112 -3,7 C 3,1 C
05.03.2012 10:02 3,2 C 61 % 1021,1 hPa 0,0 l/m 13,7 km/h (3 Bft) O-SO 112 -3,6 C -0,2 C
05.03.2012 10:07 3,3 C 60 % 1021,0 hPa 0,0 l/m 13,3 km/h (3 Bft) SO 135 -3,7 C -0,1 C
05.03.2012 10:12 3,5 C 59 % 1021,1 hPa 0,0 l/m 14,0 km/h (3 Bft) SO 135 -3,7 C 0,1 C
05.03.2012 10:17 3,7 C 58 % 1021,3 hPa 0,0 l/m 9,0 km/h (2 Bft) S 180 -3,8 C 1,3 C
05.03.2012 10:22 3,9 C 57 % 1021,3 hPa 0,0 l/m 16,9 km/h (3 Bft) O-SO 112 -3,8 C 0,1 C
05.03.2012 10:27 3,9 C 56 % 1021,1 hPa 0,0 l/m 8,3 km/h (2 Bft) O-SO 112 -4,1 C 1,8 C
05.03.2012 10:32 4,1 C 57 % 1021,2 hPa 0,0 l/m 10,8 km/h (2 Bft) O-SO 112 -3,6 C 1,4 C
05.03.2012 10:37 4,3 C 56 % 1021,3 hPa 0,0 l/m 17,3 km/h (3 Bft) SO 135 -3,7 C 0,5 C
05.03.2012 10:42 4,4 C 56 % 1021,3 hPa 0,0 l/m 7,6 km/h (2 Bft) SO 135 -3,6 C 2,5 C
05.03.2012 10:47 4,6 C 55 % 1021,3 hPa 0,0 l/m 7,6 km/h (2 Bft) SO 135 -3,6 C 2,8 C
05.03.2012 10:52 4,7 C 54 % 1021,3 hPa 0,0 l/m 6,1 km/h (2 Bft) SO 135 -3,8 C 3,3 C
05.03.2012 10:57 4,9 C 53 % 1021,4 hPa 0,0 l/m 8,3 km/h (2 Bft) SO 135 -3,9 C 2,9 C
05.03.2012 11:02 4,9 C 52 % 1021,3 hPa 0,0 l/m 19,8 km/h (3 Bft) SO 135 -4,1 C 1,0 C
05.03.2012 11:07 5,1 C 52 % 1021,3 hPa 0,0 l/m 15,8 km/h (3 Bft) O-SO 112 -3,9 C 1,8 C
05.03.2012 11:12 5,2 C 53 % 1021,3 hPa 0,0 l/m 7,2 km/h (2 Bft) SO 135 -3,6 C 3,6 C
05.03.2012 11:17 5,4 C 52 % 1021,4 hPa 0,0 l/m 25,2 km/h (4 Bft) SO 135 -3,7 C 1,0 C
05.03.2012 11:22 5,5 C 52 % 1021,4 hPa 0,0 l/m 9,0 km/h (2 Bft) O-SO 112 -3,6 C 3,5 C
05.03.2012 11:27 5,6 C 51 % 1021,4 hPa 0,0 l/m 3,6 km/h (1 Bft) O 90 -3,7 C 5,6 C
05.03.2012 11:32 5,8 C 50 % 1021,4 hPa 0,0 l/m 11,9 km/h (2 Bft) SO 135 -3,8 C 3,2 C
05.03.2012 11:37 5,8 C 50 % 1021,5 hPa 0,0 l/m 14,4 km/h (3 Bft) O-SO 112 -3,8 C 2,8 C
05.03.2012 11:42 5,9 C 50 % 1021,4 hPa 0,0 l/m 13,0 km/h (3 Bft) O-SO 112 -3,7 C 3,2 C
05.03.2012 11:47 6,1 C 49 % 1021,4 hPa 0,0 l/m 19,8 km/h (3 Bft) SO 135 -3,8 C 2,5 C
05.03.2012 11:52 6,1 C 49 % 1021,5 hPa 0,0 l/m 10,8 km/h (2 Bft) SO 135 -3,8 C 3,8 C
05.03.2012 11:57 6,2 C 49 % 1021,5 hPa 0,0 l/m 25,6 km/h (4 Bft) S-SO 157 -3,7 C 2,0 C
05.03.2012 12:02 6,4 C 50 % 1021,4 hPa 0,0 l/m 5,4 km/h (1 Bft) O-NO 67 -3,2 C 5,5 C
05.03.2012 12:07 6,6 C 48 % 1021,4 hPa 0,0 l/m 13,3 km/h (3 Bft) SO 135 -3,6 C 4,0 C
05.03.2012 12:12 6,7 C 48 % 1021,2 hPa 0,0 l/m 5,4 km/h (1 Bft) SO 135 -3,5 C 5,9 C
05.03.2012 12:17 6,8 C 47 % 1021,3 hPa 0,0 l/m 10,1 km/h (2 Bft) SO 135 -3,7 C 4,8 C
05.03.2012 12:22 6,9 C 46 % 1021,4 hPa 0,0 l/m 21,2 km/h (4 Bft) S-SO 157 -3,9 C 3,3 C
05.03.2012 12:27 6,9 C 46 % 1021,3 hPa 0,0 l/m 16,9 km/h (3 Bft) O-SO 112 -3,9 C 3,8 C
05.03.2012 12:32 7,1 C 46 % 1021,3 hPa 0,0 l/m 7,2 km/h (2 Bft) O 90 -3,7 C 5,8 C
05.03.2012 12:37 7,2 C 46 % 1021,3 hPa 0,0 l/m 11,2 km/h (2 Bft) NO 45 -3,6 C 5,1 C
05.03.2012 12:42 7,3 C 45 % 1021,2 hPa 0,0 l/m 5,0 km/h (1 Bft) SO 135 -3,8 C 6,7 C
05.03.2012 12:47 7,4 C 44 % 1021,2 hPa 0,0 l/m 13,3 km/h (3 Bft) O-SO 112 -4,0 C 5,0 C
05.03.2012 12:52 7,4 C 44 % 1021,2 hPa 0,0 l/m 11,9 km/h (2 Bft) O-SO 112 -4,0 C 5,2 C
05.03.2012 12:57 7,5 C 43 % 1021,2 hPa 0,0 l/m 11,5 km/h (2 Bft) O-SO 112 -4,3 C 5,4 C
05.03.2012 13:02 7,6 C 43 % 1021,2 hPa 0,0 l/m 22,7 km/h (4 Bft) O-SO 112 -4,2 C 4,1 C
05.03.2012 13:07 7,8 C 43 % 1021,2 hPa 0,0 l/m 11,2 km/h (2 Bft) SO 135 -4,0 C 5,8 C
05.03.2012 13:12 7,9 C 44 % 1021,2 hPa 0,0 l/m 7,9 km/h (2 Bft) S-SO 157 -3,6 C 6,6 C
05.03.2012 13:17 8,2 C 43 % 1021,2 hPa 0,0 l/m 13,0 km/h (3 Bft) O-NO 67 -3,6 C 6,0 C
05.03.2012 13:22 8,2 C 42 % 1021,2 hPa 0,0 l/m 15,8 km/h (3 Bft) O 90 -3,9 C 5,6 C
05.03.2012 13:27 8,2 C 41 % 1021,1 hPa 0,0 l/m 20,9 km/h (4 Bft) S-SO 157 -4,3 C 5,0 C
05.03.2012 13:32 8,2 C 41 % 1021,3 hPa 0,0 l/m 15,8 km/h (3 Bft) SO 135 -4,3 C 5,6 C
05.03.2012 13:37 8,3 C 41 % 1021,3 hPa 0,0 l/m 22,0 km/h (4 Bft) O-SO 112 -4,2 C 5,0 C
05.03.2012 13:42 8,4 C 41 % 1021,2 hPa 0,0 l/m 14,8 km/h (3 Bft) SO 135 -4,1 C 6,0 C
05.03.2012 13:47 8,5 C 41 % 1021,2 hPa 0,0 l/m 17,6 km/h (3 Bft) O-SO 112 -4,0 C 5,7 C
05.03.2012 13:52 8,7 C 41 % 1021,3 hPa 0,0 l/m 7,2 km/h (2 Bft) SO 135 -3,8 C 7,7 C
05.03.2012 13:57 8,8 C 40 % 1021,5 hPa 0,0 l/m 18,0 km/h (3 Bft) SO 135 -4,0 C 6,1 C
05.03.2012 14:02 8,9 C 40 % 1021,4 hPa 0,0 l/m 12,2 km/h (2 Bft) O 90 -3,9 C 7,0 C
05.03.2012 14:07 8,9 C 39 % 1021,4 hPa 0,0 l/m 24,5 km/h (4 Bft) SO 135 -4,3 C 5,6 C
05.03.2012 14:12 8,9 C 40 % 1021,4 hPa 0,0 l/m 8,3 km/h (2 Bft) SO 135 -3,9 C 7,7 C
05.03.2012 14:17 8,9 C 39 % 1021,2 hPa 0,0 l/m 16,6 km/h (3 Bft) SO 135 -4,3 C 6,4 C
05.03.2012 14:22 8,9 C 40 % 1021,3 hPa 0,0 l/m 12,2 km/h (2 Bft) SO 135 -3,9 C 7,0 C
05.03.2012 14:27 9,1 C 40 % 1021,2 hPa 0,0 l/m 6,8 km/h (2 Bft) SO 135 -3,8 C 8,2 C
05.03.2012 14:32 9,1 C 39 % 1021,4 hPa 0,0 l/m 18,4 km/h (3 Bft) SO 135 -4,1 C 6,4 C
05.03.2012 14:37 9,0 C 38 % 1021,4 hPa 0,0 l/m 7,2 km/h (2 Bft) O-SO 112 -4,5 C 8,0 C
05.03.2012 14:42 9,0 C 39 % 1021,5 hPa 0,0 l/m 20,5 km/h (4 Bft) O 90 -4,2 C 6,1 C
05.03.2012 14:47 8,9 C 38 % 1021,3 hPa 0,0 l/m 7,2 km/h (2 Bft) SO 135 -4,6 C 7,9 C
05.03.2012 14:52 8,9 C 39 % 1021,5 hPa 0,0 l/m 22,0 km/h (4 Bft) O-SO 112 -4,3 C 5,8 C
05.03.2012 14:57 9,1 C 39 % 1021,5 hPa 0,0 l/m 10,1 km/h (2 Bft) O-SO 112 -4,1 C 7,5 C
05.03.2012 15:02 9,1 C 38 % 1021,4 hPa 0,0 l/m 9,7 km/h (2 Bft) S-SO 157 -4,5 C 7,6 C
05.03.2012 15:07 9,1 C 38 % 1021,5 hPa 0,0 l/m 14,0 km/h (3 Bft) O-SO 112 -4,5 C 6,9 C
05.03.2012 15:12 9,1 C 38 % 1021,4 hPa 0,0 l/m 19,1 km/h (3 Bft) SO 135 -4,5 C 6,3 C
05.03.2012 15:17 9,1 C 38 % 1021,5 hPa 0,0 l/m 11,9 km/h (2 Bft) SO 135 -4,5 C 7,2 C
05.03.2012 15:22 9,0 C 38 % 1021,5 hPa 0,0 l/m 11,9 km/h (2 Bft) O 90 -4,5 C 7,1 C
05.03.2012 15:27 8,9 C 38 % 1021,5 hPa 0,0 l/m 8,3 km/h (2 Bft) O 90 -4,6 C 7,7 C
05.03.2012 15:32 8,8 C 39 % 1021,5 hPa 0,0 l/m 7,9 km/h (2 Bft) SO 135 -4,4 C 7,6 C
05.03.2012 15:37 8,7 C 39 % 1021,6 hPa 0,0 l/m 12,2 km/h (2 Bft) SO 135 -4,5 C 6,7 C
05.03.2012 15:42 8,6 C 39 % 1021,6 hPa 0,0 l/m 9,4 km/h (2 Bft) SO 135 -4,6 C 7,1 C
05.03.2012 15:47 8,5 C 39 % 1021,6 hPa 0,0 l/m 20,2 km/h (4 Bft) O-SO 112 -4,6 C 5,5 C
05.03.2012 15:52 8,5 C 39 % 1021,4 hPa 0,0 l/m 11,5 km/h (2 Bft) SO 135 -4,6 C 6,6 C
05.03.2012 15:57 8,5 C 40 % 1021,5 hPa 0,0 l/m 6,5 km/h (2 Bft) SO 135 -4,3 C 7,6 C
05.03.2012 16:02 8,6 C 40 % 1021,5 hPa 0,0 l/m 12,2 km/h (2 Bft) SO 135 -4,2 C 6,6 C
05.03.2012 16:07 8,6 C 40 % 1021,4 hPa 0,0 l/m 17,3 km/h (3 Bft) SO 135 -4,2 C 5,9 C
05.03.2012 16:12 8,6 C 40 % 1021,4 hPa 0,0 l/m 4,7 km/h (1 Bft) O-SO 112 -4,2 C 8,3 C
05.03.2012 16:17 8,6 C 40 % 1021,4 hPa 0,0 l/m 5,4 km/h (1 Bft) S-SO 157 -4,2 C 8,0 C
05.03.2012 16:22 8,6 C 40 % 1021,5 hPa 0,0 l/m 9,7 km/h (2 Bft) SO 135 -4,2 C 7,0 C
05.03.2012 16:27 8,6 C 41 % 1021,6 hPa 0,0 l/m 13,3 km/h (3 Bft) SO 135 -3,9 C 6,4 C
05.03.2012 16:32 8,5 C 41 % 1021,6 hPa 0,0 l/m 9,7 km/h (2 Bft) O-SO 112 -4,0 C 6,9 C
05.03.2012 16:37 8,4 C 41 % 1021,8 hPa 0,0 l/m 13,0 km/h (3 Bft) SO 135 -4,1 C 6,2 C
05.03.2012 16:42 8,3 C 41 % 1021,8 hPa 0,0 l/m 8,3 km/h (2 Bft) S-SO 157 -4,2 C 6,9 C
05.03.2012 16:47 8,1 C 41 % 1021,8 hPa 0,0 l/m 10,4 km/h (2 Bft) O 90 -4,3 C 6,3 C
05.03.2012 16:52 8,0 C 42 % 1021,9 hPa 0,0 l/m 7,6 km/h (2 Bft) O-SO 112 -4,1 C 6,8 C
05.03.2012 16:57 7,8 C 43 % 1022,1 hPa 0,0 l/m 7,6 km/h (2 Bft) SO 135 -4,0 C 6,5 C
05.03.2012 17:02 7,6 C 43 % 1022,2 hPa 0,0 l/m 6,8 km/h (2 Bft) O-SO 112 -4,2 C 6,5 C
05.03.2012 17:07 7,4 C 44 % 1022,2 hPa 0,0 l/m 5,0 km/h (1 Bft) S-SO 157 -4,0 C 6,8 C
05.03.2012 17:12 7,3 C 44 % 1022,1 hPa 0,0 l/m 3,6 km/h (1 Bft) O-SO 112 -4,1 C 7,3 C
05.03.2012 17:17 7,2 C 44 % 1022,1 hPa 0,0 l/m 5,8 km/h (2 Bft) SO 135 -4,2 C 6,3 C
05.03.2012 17:22 6,9 C 44 % 1022,2 hPa 0,0 l/m 4,7 km/h (1 Bft) SO 135 -4,5 C 6,3 C
05.03.2012 17:27 6,9 C 45 % 1022,2 hPa 0,0 l/m 7,6 km/h (2 Bft) SO 135 -4,2 C 5,5 C
05.03.2012 17:32 6,7 C 45 % 1022,3 hPa 0,0 l/m 4,3 km/h (1 Bft) O-NO 67 -4,4 C 6,7 C
05.03.2012 17:37 6,6 C 45 % 1022,2 hPa 0,0 l/m 8,3 km/h (2 Bft) O-SO 112 -4,5 C 4,9 C
05.03.2012 17:42 6,4 C 45 % 1022,5 hPa 0,0 l/m 7,2 km/h (2 Bft) O 90 -4,6 C 5,0 C
05.03.2012 17:47 6,4 C 46 % 1022,5 hPa 0,0 l/m 5,4 km/h (1 Bft) O-SO 112 -4,4 C 5,5 C
05.03.2012 17:52 6,3 C 46 % 1022,4 hPa 0,0 l/m 6,1 km/h (2 Bft) O 90 -4,5 C 5,2 C
05.03.2012 17:57 6,1 C 46 % 1022,5 hPa 0,0 l/m 6,5 km/h (2 Bft) O-SO 112 -4,6 C 4,8 C
05.03.2012 18:02 6,1 C 46 % 1022,6 hPa 0,0 l/m 5,0 km/h (1 Bft) O 90 -4,6 C 5,3 C
05.03.2012 18:07 5,9 C 47 % 1022,6 hPa 0,0 l/m 6,8 km/h (2 Bft) S-SO 157 -4,5 C 4,5 C
05.03.2012 18:12 5,9 C 47 % 1022,6 hPa 0,0 l/m 4,0 km/h (1 Bft) O-SO 112 -4,5 C 5,9 C
05.03.2012 18:17 5,8 C 47 % 1022,8 hPa 0,0 l/m 5,8 km/h (2 Bft) O-SO 112 -4,6 C 4,7 C
05.03.2012 18:22 5,6 C 47 % 1022,7 hPa 0,0 l/m 5,0 km/h (1 Bft) O-SO 112 -4,8 C 4,8 C
05.03.2012 18:27 5,6 C 48 % 1022,7 hPa 0,0 l/m 5,8 km/h (2 Bft) O-SO 112 -4,5 C 4,5 C
05.03.2012 18:32 5,5 C 48 % 1022,7 hPa 0,0 l/m 6,5 km/h (2 Bft) O 90 -4,6 C 4,1 C
05.03.2012 18:37 5,3 C 49 % 1023,0 hPa 0,0 l/m 8,3 km/h (2 Bft) SO 135 -4,5 C 3,4 C
05.03.2012 18:42 5,3 C 50 % 1023,0 hPa 0,0 l/m 7,6 km/h (2 Bft) O-SO 112 -4,3 C 3,6 C
05.03.2012 18:47 5,2 C 51 % 1023,0 hPa 0,0 l/m 4,7 km/h (1 Bft) O-SO 112 -4,1 C 4,4 C
05.03.2012 18:52 5,2 C 51 % 1023,0 hPa 0,0 l/m 6,8 km/h (2 Bft) SO 135 -4,1 C 3,7 C
05.03.2012 18:57 5,1 C 52 % 1023,2 hPa 0,0 l/m 9,4 km/h (2 Bft) SO 135 -3,9 C 2,9 C
05.03.2012 19:02 5,1 C 52 % 1023,1 hPa 0,0 l/m 4,0 km/h (1 Bft) O-SO 112 -3,9 C 5,1 C
05.03.2012 19:07 5,1 C 53 % 1023,1 hPa 0,0 l/m 8,6 km/h (2 Bft) SO 135 -3,7 C 3,1 C
05.03.2012 19:12 5,0 C 53 % 1023,3 hPa 0,0 l/m 9,4 km/h (2 Bft) O-SO 112 -3,8 C 2,8 C
05.03.2012 19:17 4,9 C 53 % 1023,3 hPa 0,0 l/m 5,4 km/h (1 Bft) SO 135 -3,9 C 3,8 C
05.03.2012 19:22 4,9 C 53 % 1023,2 hPa 0,0 l/m 5,4 km/h (1 Bft) O-SO 112 -3,9 C 3,8 C
05.03.2012 19:27 4,9 C 54 % 1023,5 hPa 0,0 l/m 8,3 km/h (2 Bft) O 90 -3,6 C 2,9 C
05.03.2012 19:32 4,8 C 54 % 1023,4 hPa 0,0 l/m 5,8 km/h (2 Bft) SO 135 -3,7 C 3,6 C
05.03.2012 19:37 4,8 C 54 % 1023,3 hPa 0,0 l/m 10,4 km/h (2 Bft) O-SO 112 -3,7 C 2,3 C
05.03.2012 19:42 4,7 C 54 % 1023,6 hPa 0,0 l/m 5,0 km/h (1 Bft) O 90 -3,8 C 3,7 C
05.03.2012 19:47 4,7 C 54 % 1023,7 hPa 0,0 l/m 9,4 km/h (2 Bft) SO 135 -3,8 C 2,4 C
05.03.2012 19:52 4,6 C 55 % 1023,6 hPa 0,0 l/m 11,9 km/h (2 Bft) O 90 -3,6 C 1,8 C
05.03.2012 19:57 4,5 C 55 % 1023,7 hPa 0,0 l/m 9,0 km/h (2 Bft) O-NO 67 -3,7 C 2,3 C
05.03.2012 20:02 4,4 C 55 % 1023,8 hPa 0,0 l/m 3,2 km/h (1 Bft) O-SO 112 -3,8 C 4,4 C
05.03.2012 20:07 4,4 C 55 % 1023,8 hPa 0,0 l/m 5,0 km/h (1 Bft) O-SO 112 -3,8 C 3,4 C
05.03.2012 20:12 4,3 C 56 % 1023,8 hPa 0,0 l/m 10,4 km/h (2 Bft) O-SO 112 -3,7 C 1,7 C
05.03.2012 20:17 4,2 C 56 % 1024,0 hPa 0,0 l/m 7,2 km/h (2 Bft) O-SO 112 -3,8 C 2,4 C
05.03.2012 20:22 4,1 C 56 % 1024,0 hPa 0,0 l/m 6,5 km/h (2 Bft) O 90 -3,9 C 2,5 C
05.03.2012 20:27 4,0 C 57 % 1024,3 hPa 0,0 l/m 3,2 km/h (1 Bft) O-SO 112 -3,7 C 4,0 C
05.03.2012 20:32 3,9 C 57 % 1024,2 hPa 0,0 l/m 8,3 km/h (2 Bft) O-SO 112 -3,8 C 1,8 C
05.03.2012 20:37 3,9 C 58 % 1024,3 hPa 0,0 l/m 3,2 km/h (1 Bft) O 90 -3,6 C 3,9 C
05.03.2012 20:42 3,9 C 58 % 1024,4 hPa 0,0 l/m 5,0 km/h (1 Bft) O-SO 112 -3,6 C 2,8 C
05.03.2012 20:47 3,8 C 58 % 1024,3 hPa 0,0 l/m 5,8 km/h (2 Bft) O 90 -3,7 C 2,4 C
05.03.2012 20:52 3,6 C 58 % 1024,5 hPa 0,0 l/m 7,6 km/h (2 Bft) SO 135 -3,9 C 1,6 C
05.03.2012 20:57 3,6 C 58 % 1024,5 hPa 0,0 l/m 9,4 km/h (2 Bft) O 90 -3,9 C 1,1 C
05.03.2012 21:02 3,5 C 58 % 1024,5 hPa 0,0 l/m 13,3 km/h (3 Bft) O 90 -4,0 C 0,2 C
05.03.2012 21:07 3,5 C 58 % 1024,7 hPa 0,0 l/m 8,3 km/h (2 Bft) O 90 -4,0 C 1,3 C
05.03.2012 21:12 3,4 C 58 % 1024,4 hPa 0,0 l/m 10,8 km/h (2 Bft) O-SO 112 -4,1 C 0,6 C
05.03.2012 21:17 3,3 C 58 % 1024,5 hPa 0,0 l/m 5,0 km/h (1 Bft) O 90 -4,2 C 2,2 C
05.03.2012 21:22 3,3 C 58 % 1024,6 hPa 0,0 l/m 5,0 km/h (1 Bft) O-SO 112 -4,2 C 2,2 C
05.03.2012 21:27 3,3 C 58 % 1024,6 hPa 0,0 l/m 8,3 km/h (2 Bft) O-NO 67 -4,2 C 1,1 C
05.03.2012 21:32 3,2 C 58 % 1024,5 hPa 0,0 l/m 8,3 km/h (2 Bft) O 90 -4,3 C 0,9 C
05.03.2012 21:37 3,1 C 58 % 1024,7 hPa 0,0 l/m 8,6 km/h (2 Bft) O 90 -4,3 C 0,7 C
05.03.2012 21:42 3,0 C 58 % 1024,7 hPa 0,0 l/m 14,0 km/h (3 Bft) O 90 -4,4 C -0,5 C
05.03.2012 21:47 2,9 C 58 % 1024,8 hPa 0,0 l/m 10,8 km/h (2 Bft) SO 135 -4,5 C -0,0 C
05.03.2012 21:52 2,9 C 58 % 1024,9 hPa 0,0 l/m 6,1 km/h (2 Bft) O 90 -4,5 C 1,3 C
05.03.2012 21:57 2,8 C 59 % 1024,8 hPa 0,0 l/m 5,0 km/h (1 Bft) SO 135 -4,4 C 1,6 C
05.03.2012 22:02 2,8 C 59 % 1024,9 hPa 0,0 l/m 7,6 km/h (2 Bft) O 90 -4,4 C 0,7 C
05.03.2012 22:07 2,7 C 59 % 1024,9 hPa 0,0 l/m 7,6 km/h (2 Bft) O 90 -4,5 C 0,6 C
05.03.2012 22:12 2,6 C 59 % 1025,1 hPa 0,0 l/m 10,1 km/h (2 Bft) O-SO 112 -4,6 C -0,2 C
05.03.2012 22:17 2,6 C 59 % 1025,0 hPa 0,0 l/m 4,0 km/h (1 Bft) O 90 -4,6 C 2,6 C
05.03.2012 22:22 2,5 C 59 % 1025,0 hPa 0,0 l/m 10,1 km/h (2 Bft) O-NO 67 -4,7 C -0,4 C
05.03.2012 22:27 2,4 C 59 % 1025,2 hPa 0,0 l/m 10,1 km/h (2 Bft) O-SO 112 -4,8 C -0,5 C
05.03.2012 22:32 2,4 C 59 % 1025,1 hPa 0,0 l/m 8,3 km/h (2 Bft) O-NO 67 -4,8 C -0,0 C
05.03.2012 22:37 2,4 C 59 % 1025,2 hPa 0,0 l/m 10,4 km/h (2 Bft) O 90 -4,8 C -0,5 C
05.03.2012 22:42 2,3 C 59 % 1025,4 hPa 0,0 l/m 9,0 km/h (2 Bft) SO 135 -4,9 C -0,3 C
05.03.2012 22:47 2,2 C 59 % 1025,2 hPa 0,0 l/m 6,1 km/h (2 Bft) O-NO 67 -5,0 C 0,5 C
05.03.2012 22:52 2,1 C 59 % 1025,2 hPa 0,0 l/m 5,4 km/h (1 Bft) O 90 -5,1 C 0,6 C
05.03.2012 22:57 2,0 C 59 % 1025,2 hPa 0,0 l/m 6,5 km/h (2 Bft) O 90 -5,2 C 0,1 C
05.03.2012 23:02 1,9 C 59 % 1025,3 hPa 0,0 l/m 8,3 km/h (2 Bft) O 90 -5,2 C -0,6 C
05.03.2012 23:07 1,9 C 60 % 1025,4 hPa 0,0 l/m 6,5 km/h (2 Bft) O 90 -5,0 C -0,0 C
05.03.2012 23:12 1,8 C 60 % 1025,4 hPa 0,0 l/m 13,0 km/h (3 Bft) O-SO 112 -5,1 C -1,8 C
05.03.2012 23:17 1,8 C 60 % 1025,5 hPa 0,0 l/m 11,9 km/h (2 Bft) O-NO 67 -5,1 C -1,6 C
05.03.2012 23:22 1,6 C 60 % 1025,6 hPa 0,0 l/m 10,1 km/h (2 Bft) O 90 -5,3 C -1,4 C
05.03.2012 23:27 1,6 C 60 % 1025,4 hPa 0,0 l/m 5,8 km/h (2 Bft) O-NO 67 -5,3 C -0,1 C
05.03.2012 23:32 1,5 C 60 % 1025,6 hPa 0,0 l/m 10,4 km/h (2 Bft) O 90 -5,4 C -1,6 C
05.03.2012 23:37 1,5 C 60 % 1025,6 hPa 0,0 l/m 7,9 km/h (2 Bft) O-NO 67 -5,4 C -0,9 C
05.03.2012 23:42 1,3 C 60 % 1025,6 hPa 0,0 l/m 5,8 km/h (2 Bft) O 90 -5,6 C -0,5 C
05.03.2012 23:47 1,3 C 61 % 1025,5 hPa 0,0 l/m 5,0 km/h (1 Bft) O-NO 67 -5,4 C -0,1 C
05.03.2012 23:52 1,3 C 61 % 1025,6 hPa 0,0 l/m 5,8 km/h (2 Bft) O 90 -5,4 C -0,5 C
05.03.2012 23:57 1,3 C 61 % 1025,6 hPa 0,0 l/m 9,4 km/h (2 Bft) O-NO 67 -5,4 C -1,6 C
_ Min-Zeit 05:17 14:37 05:27 - 20:02 - - 23:42 02:57
Minimum _ 1,3 C 38 % 1019,7 hPa - 3,2 km/h (1 Bft) - - -5,6 C -4,1 C
_ Max-Zeit 14:27 02:27 23:22 00:02 02:57 - - 01:57 16:12
Maximum _ 9,1 C 71 % 1025,6 hPa 0,0 l/m 25,6 km/h
O-SO (4 Bft)
- - -3,1 C 8,3 C
Durchschnitt _ 4,0 C 56 % 1021,8 hPa #0,0 l/m 10,4 km/h (2 Bft) O-SO - -4,1 C 1,6 C
(c) by David Heller